createdAt,value
2019-02-20T00:01:37.957Z,4.93
2019-02-20T00:04:08.953Z,4.20
2019-02-20T00:06:39.938Z,4.40
2019-02-20T00:09:10.845Z,4.73
2019-02-20T00:11:41.856Z,5.10
2019-02-20T00:14:12.750Z,5.30
2019-02-20T00:16:43.785Z,4.60
2019-02-20T00:19:14.687Z,4.73
2019-02-20T00:21:45.610Z,4.97
2019-02-20T00:24:16.500Z,4.23
2019-02-20T00:26:47.495Z,4.30
2019-02-20T00:29:18.389Z,4.30
2019-02-20T00:31:49.337Z,3.57
2019-02-20T00:34:20.198Z,3.63
2019-02-20T00:36:51.156Z,4.03
2019-02-20T00:39:22.048Z,3.87
2019-02-20T00:41:52.981Z,5.37
2019-02-20T00:44:41.722Z,3.43
2019-02-20T00:47:30.841Z,3.53
2019-02-20T00:50:01.808Z,3.10
2019-02-20T00:52:34.413Z,3.47
2019-02-20T00:55:08.619Z,3.83
2019-02-20T00:57:39.566Z,4.77
2019-02-20T01:00:12.631Z,4.10
2019-02-20T01:02:43.607Z,3.50
2019-02-20T01:05:15.354Z,3.60
2019-02-20T01:07:46.266Z,3.20
2019-02-20T01:10:17.159Z,3.73
2019-02-20T01:12:48.735Z,3.70
2019-02-20T01:15:19.652Z,3.27
2019-02-20T01:17:50.948Z,3.37
2019-02-20T01:20:21.906Z,2.87
2019-02-20T01:22:59.640Z,3.07
2019-02-20T01:25:25.408Z,2.97
2019-02-20T01:27:56.436Z,2.90
2019-02-20T01:30:27.330Z,2.67
2019-02-20T01:32:58.629Z,3.10
2019-02-20T01:35:29.521Z,3.30
2019-02-20T01:38:00.448Z,3.27
2019-02-20T01:40:31.350Z,3.07
2019-02-20T01:43:02.277Z,3.70
2019-02-20T01:45:33.172Z,4.33
2019-02-20T01:48:04.138Z,3.00
2019-02-20T01:50:35.032Z,3.40
2019-02-20T01:53:10.297Z,2.93
2019-02-20T01:55:38.541Z,3.40
2019-02-20T01:58:09.473Z,3.43
2019-02-20T02:00:40.432Z,2.93
2019-02-20T02:03:11.363Z,3.40
2019-02-20T02:05:43.137Z,2.90
2019-02-20T02:08:14.066Z,3.43
2019-02-20T02:10:44.955Z,3.10
2019-02-20T02:13:15.897Z,3.20
2019-02-20T02:15:46.776Z,2.73
2019-02-20T02:18:17.709Z,3.03
2019-02-20T02:20:48.609Z,4.00
2019-02-20T02:23:20.166Z,2.90
2019-02-20T02:25:51.100Z,3.07
2019-02-20T02:28:22.014Z,2.93
2019-02-20T02:30:52.977Z,3.30
2019-02-20T02:33:24.235Z,3.17
2019-02-20T02:35:55.128Z,2.83
2019-02-20T02:38:26.044Z,2.50
2019-02-20T02:40:56.930Z,2.97
2019-02-20T02:43:27.846Z,3.40
2019-02-20T02:45:58.750Z,2.73
2019-02-20T02:48:29.786Z,2.90
2019-02-20T02:51:00.687Z,2.93
2019-02-20T02:53:31.607Z,2.40
2019-02-20T02:56:02.496Z,3.13
2019-02-20T02:58:33.413Z,2.87
2019-02-20T03:01:04.378Z,2.67
2019-02-20T03:03:35.318Z,3.40
2019-02-20T03:06:07.190Z,2.83
2019-02-20T03:08:38.117Z,2.87
2019-02-20T03:11:09.002Z,2.87
2019-02-20T03:13:39.952Z,2.67
2019-02-20T03:16:10.833Z,3.27
2019-02-20T03:18:41.762Z,3.10
2019-02-20T03:21:12.652Z,2.83
2019-02-20T03:23:43.579Z,2.80
2019-02-20T03:26:14.477Z,2.30
2019-02-20T03:28:45.392Z,2.60
2019-02-20T03:31:16.308Z,3.10
2019-02-20T03:33:47.238Z,2.77
2019-02-20T03:36:18.127Z,3.43
2019-02-20T03:38:49.045Z,2.60
2019-02-20T03:41:20.717Z,3.27
2019-02-20T03:43:51.598Z,2.93
2019-02-20T03:46:22.481Z,2.83
2019-02-20T03:48:53.423Z,3.50
2019-02-20T03:51:24.321Z,3.37
2019-02-20T03:53:55.372Z,2.87
2019-02-20T03:56:26.563Z,2.80
2019-02-20T03:58:57.490Z,3.37
2019-02-20T04:01:28.381Z,3.73
2019-02-20T04:03:59.324Z,3.30
2019-02-20T04:06:30.206Z,3.07
2019-02-20T04:09:01.139Z,3.17
2019-02-20T04:11:32.017Z,3.30
2019-02-20T04:14:02.934Z,3.13
2019-02-20T04:16:33.899Z,3.50
2019-02-20T04:19:04.846Z,3.03
2019-02-20T04:21:35.745Z,3.30
2019-02-20T04:24:06.675Z,3.43
2019-02-20T04:26:38.766Z,3.40
2019-02-20T04:29:09.653Z,2.97
2019-02-20T04:31:40.553Z,3.23
2019-02-20T04:34:11.515Z,3.20
2019-02-20T04:36:42.426Z,3.60
2019-02-20T04:39:13.408Z,3.17
2019-02-20T04:41:44.306Z,3.07
2019-02-20T04:44:15.238Z,3.23
2019-02-20T04:46:46.143Z,2.47
2019-02-20T04:49:17.072Z,3.40
2019-02-20T04:51:47.961Z,3.10
2019-02-20T04:54:18.875Z,3.10
2019-02-20T04:56:49.776Z,2.70
2019-02-20T04:59:20.711Z,3.30
2019-02-20T05:01:51.604Z,3.13
2019-02-20T05:04:22.697Z,3.97
2019-02-20T05:06:54.395Z,2.83
2019-02-20T05:09:25.316Z,3.10
2019-02-20T05:11:56.221Z,3.00
2019-02-20T05:14:27.154Z,3.03
2019-02-20T05:16:58.032Z,2.90
2019-02-20T05:19:29.053Z,2.90
2019-02-20T05:22:00.629Z,3.37
2019-02-20T05:24:31.586Z,3.17
2019-02-20T05:27:02.466Z,2.93
2019-02-20T05:29:33.378Z,2.63
2019-02-20T05:32:04.265Z,3.00
2019-02-20T05:34:35.246Z,3.70
2019-02-20T05:37:06.127Z,3.03
2019-02-20T05:39:37.075Z,4.37
2019-02-20T05:42:07.969Z,3.67
2019-02-20T05:44:38.891Z,2.93
2019-02-20T05:47:09.790Z,3.37
2019-02-20T05:49:40.730Z,4.27
2019-02-20T05:52:11.624Z,3.33
2019-02-20T05:54:42.551Z,2.83
2019-02-20T05:57:13.442Z,3.77
2019-02-20T05:59:44.372Z,2.83
2019-02-20T06:02:15.273Z,3.10
2019-02-20T06:04:46.304Z,3.50
2019-02-20T06:07:17.192Z,2.70
2019-02-20T06:09:48.107Z,3.03
2019-02-20T06:12:18.997Z,3.27
2019-02-20T06:14:49.917Z,3.27
2019-02-20T06:17:20.804Z,3.40
2019-02-20T06:19:51.753Z,3.13
2019-02-20T06:22:22.650Z,3.47
2019-02-20T06:24:53.591Z,3.30
2019-02-20T06:27:24.480Z,4.07
2019-02-20T06:29:55.409Z,4.03
2019-02-20T06:32:26.307Z,3.87
2019-02-20T06:34:57.262Z,3.20
2019-02-20T06:37:28.155Z,3.20
2019-02-20T06:39:59.090Z,3.40
2019-02-20T06:42:29.980Z,3.50
2019-02-20T06:45:00.897Z,4.90
2019-02-20T06:47:31.800Z,5.80
2019-02-20T06:50:02.835Z,4.50
2019-02-20T06:52:33.729Z,4.67
2019-02-20T06:55:06.576Z,4.80
2019-02-20T06:57:37.550Z,4.63
2019-02-20T07:00:11.336Z,3.93
2019-02-20T07:02:42.229Z,3.80
2019-02-20T07:05:30.394Z,3.80
2019-02-20T07:08:25.876Z,4.07
2019-02-20T07:11:03.002Z,3.57
2019-02-20T07:13:36.825Z,3.60
2019-02-20T07:16:28.522Z,4.50
2019-02-20T07:19:04.884Z,3.63
2019-02-20T07:22:12.299Z,4.00
2019-02-20T07:24:52.085Z,4.00
2019-02-20T07:27:34.442Z,3.93
2019-02-20T07:30:11.306Z,3.27
2019-02-20T07:32:42.213Z,4.10
2019-02-20T07:35:13.185Z,4.87
2019-02-20T07:37:44.162Z,4.23
2019-02-20T07:40:15.053Z,4.70
2019-02-20T07:42:45.982Z,3.43
2019-02-20T07:45:16.877Z,4.67
2019-02-20T07:47:47.799Z,3.77
2019-02-20T07:50:18.702Z,3.43
2019-02-20T07:52:49.636Z,3.63
2019-02-20T07:55:20.553Z,5.60
2019-02-20T07:57:51.464Z,6.30
2019-02-20T08:00:22.350Z,3.40
2019-02-20T08:02:53.274Z,3.27
2019-02-20T08:05:24.231Z,3.93
2019-02-20T08:07:55.190Z,3.57
2019-02-20T08:10:26.130Z,3.10
2019-02-20T08:12:57.071Z,3.20
2019-02-20T08:15:27.957Z,3.40
2019-02-20T08:17:58.891Z,3.43
2019-02-20T08:20:29.784Z,3.17
2019-02-20T08:23:00.879Z,3.43
2019-02-20T08:25:31.767Z,4.37
2019-02-20T08:28:02.688Z,3.30
2019-02-20T08:30:33.597Z,3.30
2019-02-20T08:33:04.527Z,4.83
2019-02-20T08:35:35.427Z,4.43
2019-02-20T08:38:06.394Z,4.70
2019-02-20T08:40:37.273Z,4.80
2019-02-20T08:43:08.232Z,3.93
2019-02-20T08:45:39.139Z,2.70
2019-02-20T08:48:10.025Z,3.77
2019-02-20T08:50:40.908Z,3.50
2019-02-20T08:53:11.867Z,3.83
2019-02-20T08:55:42.766Z,3.03
2019-02-20T08:58:13.678Z,3.50
2019-02-20T09:00:44.574Z,3.77
2019-02-20T09:03:15.485Z,3.40
2019-02-20T09:05:46.375Z,3.20
2019-02-20T09:08:17.414Z,4.37
2019-02-20T09:10:48.305Z,2.50
2019-02-20T09:13:19.220Z,3.93
2019-02-20T09:15:50.119Z,4.80
2019-02-20T09:18:21.080Z,3.30
2019-02-20T09:20:51.986Z,3.40
2019-02-20T09:23:22.921Z,4.27
2019-02-20T09:25:53.825Z,7.33
2019-02-20T09:28:24.742Z,3.67
2019-02-20T09:30:55.644Z,3.33
2019-02-20T09:33:26.569Z,3.03
2019-02-20T09:35:57.444Z,3.10
2019-02-20T09:38:28.385Z,3.50
2019-02-20T09:40:59.644Z,2.97
2019-02-20T09:43:30.581Z,2.57
2019-02-20T09:46:01.478Z,2.87
2019-02-20T09:48:32.394Z,3.63
2019-02-20T09:51:03.282Z,3.33
2019-02-20T09:53:34.249Z,3.03
2019-02-20T09:56:05.150Z,3.00
2019-02-20T09:58:36.065Z,3.90
2019-02-20T10:01:06.959Z,2.60
2019-02-20T10:03:37.868Z,3.83
2019-02-20T10:06:08.758Z,2.77
2019-02-20T10:08:39.835Z,2.43
2019-02-20T10:11:11.934Z,3.43
2019-02-20T10:13:42.862Z,3.10
2019-02-20T10:16:13.754Z,3.70
2019-02-20T10:18:44.667Z,4.13
2019-02-20T10:21:17.199Z,5.07
2019-02-20T10:23:48.304Z,3.63
2019-02-20T10:26:19.206Z,5.07
2019-02-20T10:28:50.140Z,4.53
2019-02-20T10:31:21.027Z,6.30
2019-02-20T10:33:52.033Z,5.85
2019-02-20T10:36:22.935Z,5.30
2019-02-20T10:38:54.000Z,4.73
2019-02-20T10:41:25.216Z,5.23
2019-02-20T10:43:56.142Z,6.15
2019-02-20T10:46:27.038Z,4.80
2019-02-20T10:48:57.971Z,8.90
2019-02-20T10:51:28.870Z,7.03
2019-02-20T10:53:59.835Z,8.57
2019-02-20T10:56:30.796Z,4.17
2019-02-20T10:59:01.718Z,5.03
2019-02-20T11:01:32.690Z,3.87
2019-02-20T11:04:03.625Z,3.20
2019-02-20T11:06:34.508Z,3.57
2019-02-20T11:09:06.576Z,4.17
2019-02-20T11:11:37.479Z,3.47
2019-02-20T11:14:08.388Z,2.90
2019-02-20T11:16:39.286Z,3.80
2019-02-20T11:19:10.217Z,3.03
2019-02-20T11:21:41.207Z,4.53
2019-02-20T11:24:12.169Z,3.43
2019-02-20T11:26:52.397Z,5.53
2019-02-20T11:29:15.694Z,3.03
2019-02-20T11:31:46.580Z,3.27
2019-02-20T11:34:17.507Z,3.70
2019-02-20T11:36:49.413Z,3.13
2019-02-20T11:39:20.440Z,2.80
2019-02-20T11:41:51.340Z,4.03
2019-02-20T11:44:22.313Z,3.50
2019-02-20T11:46:53.231Z,3.30
2019-02-20T11:49:24.133Z,2.83
2019-02-20T11:51:55.098Z,4.67
2019-02-20T11:54:26.037Z,5.63
2019-02-20T11:56:56.928Z,6.65
2019-02-20T11:59:27.927Z,10.00
2019-02-20T12:01:58.909Z,7.45
2019-02-20T12:04:29.836Z,15.33
2019-02-20T12:07:00.728Z,7.12
2019-02-20T12:09:31.752Z,4.80
2019-02-20T12:12:02.644Z,5.33
2019-02-20T12:14:33.599Z,2.57
2019-02-20T12:17:04.507Z,2.83
2019-02-20T12:19:35.419Z,3.00
2019-02-20T12:22:06.387Z,3.20
2019-02-20T12:24:37.339Z,2.90
2019-02-20T12:27:08.231Z,3.73
2019-02-20T12:29:39.141Z,3.03
2019-02-20T12:32:10.043Z,3.50
2019-02-20T12:34:40.970Z,3.80
2019-02-20T12:37:11.867Z,3.60
2019-02-20T12:39:42.801Z,10.47
2019-02-20T12:42:13.693Z,8.67
2019-02-20T12:44:44.612Z,11.90
2019-02-20T12:47:15.512Z,9.87
2019-02-20T12:49:46.522Z,7.53
2019-02-20T12:52:17.402Z,5.60
2019-02-20T12:54:48.442Z,6.17
2019-02-20T12:57:19.330Z,12.23
2019-02-20T12:59:50.260Z,5.43
2019-02-20T13:02:21.154Z,6.63
2019-02-20T13:04:52.153Z,6.83
2019-02-20T13:07:23.057Z,15.97
2019-02-20T13:09:54.071Z,15.97
2019-02-20T13:12:25.757Z,16.13
2019-02-20T13:14:56.677Z,9.07
2019-02-20T13:17:27.584Z,15.63
2019-02-20T13:19:58.506Z,8.37
2019-02-20T13:22:29.408Z,5.00
2019-02-20T13:25:00.360Z,11.67
2019-02-20T13:27:31.267Z,13.30
2019-02-20T13:30:02.209Z,17.33
2019-02-20T13:32:33.118Z,14.83
2019-02-20T13:35:04.548Z,24.90
2019-02-20T13:37:35.450Z,14.97
2019-02-20T13:40:09.224Z,13.70
2019-02-20T13:42:40.127Z,12.07
2019-02-20T13:45:11.072Z,18.00
2019-02-20T13:47:41.963Z,13.90
2019-02-20T13:50:13.081Z,8.60
2019-02-20T13:52:51.970Z,10.10
2019-02-20T13:55:17.105Z,4.90
2019-02-20T13:57:47.996Z,8.77
2019-02-20T14:00:18.918Z,16.00
2019-02-20T14:02:49.826Z,15.57
2019-02-20T14:05:20.762Z,15.00
2019-02-20T14:07:51.670Z,13.80
2019-02-20T14:10:22.636Z,19.90
2019-02-20T14:12:53.545Z,19.10
2019-02-20T14:15:24.583Z,19.90
2019-02-20T14:17:55.497Z,23.10
2019-02-20T14:20:26.709Z,19.87
2019-02-20T14:22:57.602Z,23.10
2019-02-20T14:25:28.555Z,15.50
2019-02-20T14:27:59.450Z,13.03
2019-02-20T14:30:30.436Z,9.87
2019-02-20T14:33:01.337Z,12.43
2019-02-20T14:35:32.290Z,13.43
2019-02-20T14:38:03.209Z,15.77
2019-02-20T14:40:34.265Z,14.47
2019-02-20T14:43:05.166Z,13.67
2019-02-20T14:45:36.095Z,18.37
2019-02-20T14:48:07.274Z,14.03
2019-02-20T14:50:38.204Z,17.07
2019-02-20T14:53:09.111Z,35.83
2019-02-20T14:55:40.179Z,29.40
2019-02-20T14:58:11.167Z,21.00
2019-02-20T15:00:42.535Z,16.90
2019-02-20T15:03:13.441Z,13.33
2019-02-20T15:05:44.379Z,11.80
2019-02-20T15:08:15.287Z,7.30
2019-02-20T15:10:46.471Z,14.80
2019-02-20T15:13:17.407Z,12.80
2019-02-20T15:15:48.335Z,7.50
2019-02-20T15:18:19.232Z,7.57
2019-02-20T15:20:50.146Z,9.73
2019-02-20T15:23:21.047Z,12.03
2019-02-20T15:25:52.018Z,8.33
2019-02-20T15:28:23.174Z,9.70
2019-02-20T15:30:54.124Z,8.40
2019-02-20T15:33:25.024Z,10.90
2019-02-20T15:35:55.954Z,9.97
2019-02-20T15:38:26.844Z,11.37
2019-02-20T15:40:57.795Z,11.00
2019-02-20T15:43:28.713Z,13.27
2019-02-20T15:45:59.642Z,11.80
2019-02-20T15:48:30.554Z,11.50
2019-02-20T15:51:01.481Z,8.63
2019-02-20T15:53:32.387Z,12.90
2019-02-20T15:56:03.613Z,22.13
2019-02-20T15:58:34.597Z,16.83
2019-02-20T16:01:08.094Z,17.07
2019-02-20T16:03:39.071Z,11.03
2019-02-20T16:06:10.003Z,16.03
2019-02-20T16:08:41.183Z,14.47
2019-02-20T16:11:12.136Z,20.20
2019-02-20T16:13:43.040Z,14.53
2019-02-20T16:16:14.321Z,13.67
2019-02-20T16:18:45.368Z,10.77
2019-02-20T16:21:16.374Z,14.17
2019-02-20T16:23:47.469Z,8.07
2019-02-20T16:26:18.426Z,40.67
2019-02-20T16:28:49.334Z,13.93
2019-02-20T16:31:20.268Z,7.40
2019-02-20T16:33:51.232Z,9.73
2019-02-20T16:36:23.264Z,18.90
2019-02-20T16:38:54.188Z,14.37
2019-02-20T16:41:25.177Z,12.10
2019-02-20T16:43:56.103Z,16.37
2019-02-20T16:46:36.440Z,13.60
2019-02-20T16:49:10.840Z,18.23
2019-02-20T16:51:41.787Z,15.77
2019-02-20T16:54:12.702Z,17.90
2019-02-20T16:56:43.665Z,13.57
2019-02-20T16:59:14.571Z,13.57
2019-02-20T17:01:45.884Z,11.63
2019-02-20T17:04:16.782Z,9.00
2019-02-20T17:06:47.715Z,9.37
2019-02-20T17:09:18.628Z,12.17
2019-02-20T17:11:49.645Z,11.73
2019-02-20T17:14:20.649Z,13.63
2019-02-20T17:16:51.585Z,17.43
2019-02-20T17:19:22.489Z,12.70
2019-02-20T17:21:53.415Z,12.43
2019-02-20T17:24:24.314Z,13.47
2019-02-20T17:26:55.356Z,27.57
2019-02-20T17:29:26.448Z,17.93
2019-02-20T17:31:57.371Z,16.47
2019-02-20T17:34:28.264Z,12.77
2019-02-20T17:36:59.201Z,14.07
2019-02-20T17:39:30.102Z,12.33
2019-02-20T17:42:01.346Z,13.20
2019-02-20T17:44:32.245Z,9.63
2019-02-20T17:47:03.177Z,17.07
2019-02-20T17:49:34.183Z,13.90
2019-02-20T17:52:05.106Z,10.90
2019-02-20T17:54:36.003Z,8.93
2019-02-20T17:57:07.054Z,10.97
2019-02-20T17:59:37.955Z,13.03
2019-02-20T18:02:08.971Z,10.60
2019-02-20T18:04:39.877Z,14.17
2019-02-20T18:07:10.807Z,12.90
2019-02-20T18:09:41.717Z,13.33
2019-02-20T18:12:12.713Z,10.83
2019-02-20T18:14:43.631Z,11.43
2019-02-20T18:17:14.577Z,10.67
2019-02-20T18:19:45.491Z,9.43
2019-02-20T18:22:16.534Z,10.77
2019-02-20T18:24:47.565Z,16.33
2019-02-20T18:27:18.609Z,13.10
2019-02-20T18:29:49.522Z,10.67
2019-02-20T18:32:20.464Z,10.93
2019-02-20T18:34:51.366Z,16.97
2019-02-20T18:37:22.503Z,21.90
2019-02-20T18:39:53.455Z,25.83
2019-02-20T18:42:24.449Z,37.63
2019-02-20T18:44:55.815Z,27.63
2019-02-20T18:47:26.861Z,28.53
2019-02-20T18:49:57.755Z,31.70
2019-02-20T18:52:28.688Z,20.83
2019-02-20T18:55:05.854Z,17.97
2019-02-20T18:57:32.265Z,17.80
2019-02-20T19:00:03.159Z,14.10
2019-02-20T19:02:34.099Z,11.73
2019-02-20T19:05:06.762Z,12.40
2019-02-20T19:07:37.762Z,9.63
2019-02-20T19:10:11.611Z,11.53
2019-02-20T19:12:51.304Z,11.60
2019-02-20T19:15:25.180Z,15.07
2019-02-20T19:18:08.024Z,18.20
2019-02-20T19:21:03.248Z,15.77
2019-02-20T19:23:48.482Z,16.77
2019-02-20T19:26:22.276Z,16.53
2019-02-20T19:29:27.836Z,16.37
2019-02-20T19:32:21.402Z,15.50
2019-02-20T19:35:01.178Z,19.77
2019-02-20T19:37:43.741Z,19.23
2019-02-20T19:40:17.622Z,22.53
2019-02-20T19:42:54.366Z,17.90
2019-02-20T19:45:30.929Z,14.20
2019-02-20T19:48:13.734Z,13.33
2019-02-20T19:50:56.126Z,15.00
2019-02-20T19:53:38.725Z,18.57
2019-02-20T19:56:27.461Z,19.07
2019-02-20T19:59:16.486Z,36.67
2019-02-20T20:01:52.990Z,22.27
2019-02-20T20:04:29.560Z,16.00
2019-02-20T20:07:15.393Z,50.60
2019-02-20T20:10:13.379Z,35.37
2019-02-20T20:13:02.236Z,28.53
2019-02-20T20:15:53.882Z,17.17
2019-02-20T20:18:36.943Z,16.17
2019-02-20T20:21:16.665Z,16.87
2019-02-20T20:23:53.173Z,13.63
2019-02-20T20:26:35.785Z,14.70
2019-02-20T20:29:32.109Z,13.37
2019-02-20T20:32:08.839Z,12.90
2019-02-20T20:35:00.885Z,14.27
2019-02-20T20:37:37.730Z,14.77
2019-02-20T20:40:40.427Z,12.40
2019-02-20T20:43:14.258Z,12.03
2019-02-20T20:45:48.097Z,12.13
2019-02-20T20:48:36.840Z,12.63
2019-02-20T20:51:13.522Z,13.13
2019-02-20T20:54:22.630Z,14.10
2019-02-20T20:57:08.220Z,14.17
2019-02-20T20:59:44.813Z,15.27
2019-02-20T21:02:21.617Z,13.63
2019-02-20T21:05:01.315Z,13.53
2019-02-20T21:07:46.799Z,16.73
2019-02-20T21:10:40.085Z,17.63
2019-02-20T21:13:19.845Z,16.17
2019-02-20T21:16:16.210Z,16.53
2019-02-20T21:19:21.634Z,15.37
2019-02-20T21:22:26.385Z,15.33
2019-02-20T21:25:33.612Z,13.97
2019-02-20T21:28:22.401Z,13.83
2019-02-20T21:31:05.026Z,21.20
2019-02-20T21:34:12.132Z,14.50
2019-02-20T21:36:54.582Z,12.13
2019-02-20T21:39:37.396Z,12.73
2019-02-20T21:42:35.296Z,12.77
2019-02-20T21:45:18.027Z,12.63
2019-02-20T21:48:08.985Z,12.53
2019-02-20T21:50:45.807Z,12.47
2019-02-20T21:53:19.651Z,13.27
2019-02-20T21:56:14.972Z,14.07
2019-02-20T21:58:58.074Z,13.50
2019-02-20T22:01:44.148Z,12.63
2019-02-20T22:04:40.561Z,11.90
2019-02-20T22:07:29.275Z,16.53
2019-02-20T22:10:05.819Z,14.03
2019-02-20T22:13:02.387Z,15.13
2019-02-20T22:15:36.450Z,13.57
2019-02-20T22:18:32.499Z,12.17
2019-02-20T22:21:15.189Z,14.53
2019-02-20T22:23:57.883Z,14.37
2019-02-20T22:26:46.054Z,14.60
2019-02-20T22:29:37.396Z,20.53
2019-02-20T22:32:11.286Z,16.50
2019-02-20T22:34:50.863Z,10.93
2019-02-20T22:37:30.748Z,10.80
2019-02-20T22:40:07.529Z,11.47
2019-02-20T22:43:14.861Z,11.63
2019-02-20T22:46:00.581Z,11.80
2019-02-20T22:48:46.179Z,12.73
2019-02-20T22:51:42.217Z,12.80
2019-02-20T22:54:24.574Z,12.30
2019-02-20T22:57:26.631Z,13.57
2019-02-20T23:00:35.515Z,14.43
2019-02-20T23:03:12.124Z,14.03
2019-02-20T23:06:14.798Z,13.93
2019-02-20T23:08:48.631Z,12.07
2019-02-20T23:11:34.685Z,12.70
2019-02-20T23:14:08.514Z,13.83
2019-02-20T23:16:39.486Z,12.53
2019-02-20T23:19:10.390Z,11.70
2019-02-20T23:21:41.364Z,12.03
2019-02-20T23:24:12.265Z,12.73
2019-02-20T23:26:43.271Z,10.97
2019-02-20T23:29:14.193Z,10.40
2019-02-20T23:31:45.125Z,9.43
2019-02-20T23:34:16.539Z,12.07
2019-02-20T23:36:47.515Z,12.10
2019-02-20T23:39:18.415Z,16.23
2019-02-20T23:41:49.679Z,13.80
2019-02-20T23:44:20.586Z,12.83
2019-02-20T23:46:51.528Z,13.90
2019-02-20T23:49:22.432Z,14.63
2019-02-20T23:51:53.395Z,14.13
2019-02-20T23:54:24.299Z,13.40
2019-02-20T23:56:55.241Z,13.10
2019-02-20T23:59:26.237Z,14.77
